<?xml version="1.0" encoding="UTF-8" standalone="no" ?>
<gpx xmlns="http://www.topografix.com/GPX/1/1" xmlns:xsi="http://www.w3.org/2001/XMLSchema-instance" xsi:schemaLocation="http://www.topografix.com/GPX/1/1 http://www.topografix.com/GPX/1/1/gpx.xsd" version="1.1" creator="VisuGPX - https://www.visugpx.com">
  <metadata>
    <name>Le Ruban Thomassette</name>
    <desc><![CDATA[Parcours créé sur Trace de Trail]]></desc>
  </metadata>
  <trk>
    <name><![CDATA[Le Ruban Thomassette sur TraceDeTrail.fr]]></name>
    <trkseg>
      <trkpt lat="46.58395" lon="6.20993">
        <ele>1022</ele>
        <time>2024-07-01T10:23:26+00:00</time>
      </trkpt>
      <trkpt lat="46.58402" lon="6.21059">
        <ele>1022</ele>
        <time>2024-07-01T10:23:29+00:00</time>
      </trkpt>
      <trkpt lat="46.58402" lon="6.21058">
        <ele>1022</ele>
        <time>2024-07-01T10:23:32+00:00</time>
      </trkpt>
      <trkpt lat="46.58378" lon="6.21095">
        <ele>1023</ele>
        <time>2024-07-01T10:23:35+00:00</time>
      </trkpt>
      <trkpt lat="46.58387" lon="6.21098">
        <ele>1023</ele>
        <time>2024-07-01T10:23:38+00:00</time>
      </trkpt>
      <trkpt lat="46.58401" lon="6.21097">
        <ele>1022</ele>
        <time>2024-07-01T10:23:41+00:00</time>
      </trkpt>
      <trkpt lat="46.58467" lon="6.21112">
        <ele>1021</ele>
        <time>2024-07-01T10:23:44+00:00</time>
      </trkpt>
      <trkpt lat="46.58486" lon="6.21113">
        <ele>1021</ele>
        <time>2024-07-01T10:23:47+00:00</time>
      </trkpt>
      <trkpt lat="46.58509" lon="6.21112">
        <ele>1020</ele>
        <time>2024-07-01T10:23:50+00:00</time>
      </trkpt>
      <trkpt lat="46.58527" lon="6.21107">
        <ele>1020</ele>
        <time>2024-07-01T10:23:53+00:00</time>
      </trkpt>
      <trkpt lat="46.58653" lon="6.21055">
        <ele>1018</ele>
        <time>2024-07-01T10:23:56+00:00</time>
      </trkpt>
      <trkpt lat="46.58717" lon="6.21023">
        <ele>1018</ele>
        <time>2024-07-01T10:23:59+00:00</time>
      </trkpt>
      <trkpt lat="46.58756" lon="6.20999">
        <ele>1018</ele>
        <time>2024-07-01T10:24:02+00:00</time>
      </trkpt>
      <trkpt lat="46.58843" lon="6.20932">
        <ele>1021</ele>
        <time>2024-07-01T10:24:05+00:00</time>
      </trkpt>
      <trkpt lat="46.58856" lon="6.20917">
        <ele>1021</ele>
        <time>2024-07-01T10:24:08+00:00</time>
      </trkpt>
      <trkpt lat="46.58881" lon="6.20879">
        <ele>1023</ele>
        <time>2024-07-01T10:24:11+00:00</time>
      </trkpt>
      <trkpt lat="46.58959" lon="6.20741">
        <ele>1029</ele>
        <time>2024-07-01T10:24:14+00:00</time>
      </trkpt>
      <trkpt lat="46.58996" lon="6.20658">
        <ele>1032</ele>
        <time>2024-07-01T10:24:17+00:00</time>
      </trkpt>
      <trkpt lat="46.59004" lon="6.20647">
        <ele>1032</ele>
        <time>2024-07-01T10:24:20+00:00</time>
      </trkpt>
      <trkpt lat="46.59014" lon="6.20608">
        <ele>1034</ele>
        <time>2024-07-01T10:24:23+00:00</time>
      </trkpt>
      <trkpt lat="46.59019" lon="6.20578">
        <ele>1036</ele>
        <time>2024-07-01T10:24:26+00:00</time>
      </trkpt>
      <trkpt lat="46.5902" lon="6.20508">
        <ele>1038</ele>
        <time>2024-07-01T10:24:29+00:00</time>
      </trkpt>
      <trkpt lat="46.59024" lon="6.20477">
        <ele>1040</ele>
        <time>2024-07-01T10:24:32+00:00</time>
      </trkpt>
      <trkpt lat="46.59039" lon="6.20412">
        <ele>1044</ele>
        <time>2024-07-01T10:24:35+00:00</time>
      </trkpt>
      <trkpt lat="46.59049" lon="6.2036">
        <ele>1048</ele>
        <time>2024-07-01T10:24:38+00:00</time>
      </trkpt>
      <trkpt lat="46.59057" lon="6.20328">
        <ele>1049</ele>
        <time>2024-07-01T10:24:41+00:00</time>
      </trkpt>
      <trkpt lat="46.59078" lon="6.2026">
        <ele>1052</ele>
        <time>2024-07-01T10:24:44+00:00</time>
      </trkpt>
      <trkpt lat="46.59092" lon="6.20189">
        <ele>1054</ele>
        <time>2024-07-01T10:24:47+00:00</time>
      </trkpt>
      <trkpt lat="46.59104" lon="6.20172">
        <ele>1055</ele>
        <time>2024-07-01T10:24:50+00:00</time>
      </trkpt>
      <trkpt lat="46.59119" lon="6.20162">
        <ele>1055</ele>
        <time>2024-07-01T10:24:53+00:00</time>
      </trkpt>
      <trkpt lat="46.59148" lon="6.20149">
        <ele>1055</ele>
        <time>2024-07-01T10:24:56+00:00</time>
      </trkpt>
      <trkpt lat="46.59181" lon="6.2014">
        <ele>1055</ele>
        <time>2024-07-01T10:24:59+00:00</time>
      </trkpt>
      <trkpt lat="46.59178" lon="6.20116">
        <ele>1056</ele>
        <time>2024-07-01T10:25:02+00:00</time>
      </trkpt>
      <trkpt lat="46.59105" lon="6.19944">
        <ele>1064</ele>
        <time>2024-07-01T10:25:05+00:00</time>
      </trkpt>
      <trkpt lat="46.59092" lon="6.19908">
        <ele>1064</ele>
        <time>2024-07-01T10:25:08+00:00</time>
      </trkpt>
      <trkpt lat="46.5908" lon="6.19859">
        <ele>1065</ele>
        <time>2024-07-01T10:25:11+00:00</time>
      </trkpt>
      <trkpt lat="46.59036" lon="6.19646">
        <ele>1067</ele>
        <time>2024-07-01T10:25:14+00:00</time>
      </trkpt>
      <trkpt lat="46.59033" lon="6.19621">
        <ele>1067</ele>
        <time>2024-07-01T10:25:17+00:00</time>
      </trkpt>
      <trkpt lat="46.59031" lon="6.19579">
        <ele>1068</ele>
        <time>2024-07-01T10:25:20+00:00</time>
      </trkpt>
      <trkpt lat="46.59023" lon="6.19537">
        <ele>1067</ele>
        <time>2024-07-01T10:25:23+00:00</time>
      </trkpt>
      <trkpt lat="46.59007" lon="6.1947">
        <ele>1067</ele>
        <time>2024-07-01T10:25:26+00:00</time>
      </trkpt>
      <trkpt lat="46.58986" lon="6.19404">
        <ele>1068</ele>
        <time>2024-07-01T10:25:29+00:00</time>
      </trkpt>
      <trkpt lat="46.58903" lon="6.19216">
        <ele>1069</ele>
        <time>2024-07-01T10:25:32+00:00</time>
      </trkpt>
      <trkpt lat="46.58809" lon="6.19042">
        <ele>1072</ele>
        <time>2024-07-01T10:25:35+00:00</time>
      </trkpt>
      <trkpt lat="46.58746" lon="6.18939">
        <ele>1078</ele>
        <time>2024-07-01T10:25:38+00:00</time>
      </trkpt>
      <trkpt lat="46.58697" lon="6.18867">
        <ele>1084</ele>
        <time>2024-07-01T10:25:41+00:00</time>
      </trkpt>
      <trkpt lat="46.58676" lon="6.18846">
        <ele>1087</ele>
        <time>2024-07-01T10:25:44+00:00</time>
      </trkpt>
      <trkpt lat="46.58649" lon="6.18828">
        <ele>1089</ele>
        <time>2024-07-01T10:25:47+00:00</time>
      </trkpt>
      <trkpt lat="46.58587" lon="6.18804">
        <ele>1092</ele>
        <time>2024-07-01T10:25:50+00:00</time>
      </trkpt>
      <trkpt lat="46.58567" lon="6.18789">
        <ele>1093</ele>
        <time>2024-07-01T10:25:53+00:00</time>
      </trkpt>
      <trkpt lat="46.58554" lon="6.18771">
        <ele>1093</ele>
        <time>2024-07-01T10:25:56+00:00</time>
      </trkpt>
      <trkpt lat="46.58493" lon="6.18668">
        <ele>1095</ele>
        <time>2024-07-01T10:25:59+00:00</time>
      </trkpt>
      <trkpt lat="46.58494" lon="6.18667">
        <ele>1095</ele>
        <time>2024-07-01T10:26:02+00:00</time>
      </trkpt>
      <trkpt lat="46.58471" lon="6.18629">
        <ele>1096</ele>
        <time>2024-07-01T10:26:05+00:00</time>
      </trkpt>
      <trkpt lat="46.58423" lon="6.18532">
        <ele>1098</ele>
        <time>2024-07-01T10:26:08+00:00</time>
      </trkpt>
      <trkpt lat="46.58409" lon="6.18487">
        <ele>1100</ele>
        <time>2024-07-01T10:26:11+00:00</time>
      </trkpt>
      <trkpt lat="46.58396" lon="6.18427">
        <ele>1101</ele>
        <time>2024-07-01T10:26:14+00:00</time>
      </trkpt>
      <trkpt lat="46.58367" lon="6.18348">
        <ele>1103</ele>
        <time>2024-07-01T10:26:17+00:00</time>
      </trkpt>
      <trkpt lat="46.58342" lon="6.18291">
        <ele>1106</ele>
        <time>2024-07-01T10:26:20+00:00</time>
      </trkpt>
      <trkpt lat="46.58274" lon="6.1821">
        <ele>1109</ele>
        <time>2024-07-01T10:26:23+00:00</time>
      </trkpt>
      <trkpt lat="46.58236" lon="6.18127">
        <ele>1110</ele>
        <time>2024-07-01T10:26:26+00:00</time>
      </trkpt>
      <trkpt lat="46.58204" lon="6.18082">
        <ele>1111</ele>
        <time>2024-07-01T10:26:29+00:00</time>
      </trkpt>
      <trkpt lat="46.58183" lon="6.18065">
        <ele>1112</ele>
        <time>2024-07-01T10:26:32+00:00</time>
      </trkpt>
      <trkpt lat="46.58057" lon="6.17992">
        <ele>1119</ele>
        <time>2024-07-01T10:26:35+00:00</time>
      </trkpt>
      <trkpt lat="46.57968" lon="6.17915">
        <ele>1122</ele>
        <time>2024-07-01T10:26:38+00:00</time>
      </trkpt>
      <trkpt lat="46.5788" lon="6.17849">
        <ele>1127</ele>
        <time>2024-07-01T10:26:41+00:00</time>
      </trkpt>
      <trkpt lat="46.57802" lon="6.17774">
        <ele>1129</ele>
        <time>2024-07-01T10:26:44+00:00</time>
      </trkpt>
      <trkpt lat="46.57748" lon="6.17699">
        <ele>1131</ele>
        <time>2024-07-01T10:26:47+00:00</time>
      </trkpt>
      <trkpt lat="46.57707" lon="6.17669">
        <ele>1132</ele>
        <time>2024-07-01T10:26:50+00:00</time>
      </trkpt>
      <trkpt lat="46.57642" lon="6.17602">
        <ele>1134</ele>
        <time>2024-07-01T10:26:53+00:00</time>
      </trkpt>
      <trkpt lat="46.57584" lon="6.17552">
        <ele>1136</ele>
        <time>2024-07-01T10:26:56+00:00</time>
      </trkpt>
      <trkpt lat="46.5756" lon="6.17547">
        <ele>1138</ele>
        <time>2024-07-01T10:26:59+00:00</time>
      </trkpt>
      <trkpt lat="46.57496" lon="6.17557">
        <ele>1141</ele>
        <time>2024-07-01T10:27:02+00:00</time>
      </trkpt>
      <trkpt lat="46.57479" lon="6.17545">
        <ele>1142</ele>
        <time>2024-07-01T10:27:05+00:00</time>
      </trkpt>
      <trkpt lat="46.57427" lon="6.17486">
        <ele>1144</ele>
        <time>2024-07-01T10:27:08+00:00</time>
      </trkpt>
      <trkpt lat="46.57376" lon="6.17419">
        <ele>1146</ele>
        <time>2024-07-01T10:27:11+00:00</time>
      </trkpt>
      <trkpt lat="46.57341" lon="6.17359">
        <ele>1149</ele>
        <time>2024-07-01T10:27:14+00:00</time>
      </trkpt>
      <trkpt lat="46.57305" lon="6.17264">
        <ele>1151</ele>
        <time>2024-07-01T10:27:17+00:00</time>
      </trkpt>
      <trkpt lat="46.57279" lon="6.17208">
        <ele>1151</ele>
        <time>2024-07-01T10:27:20+00:00</time>
      </trkpt>
      <trkpt lat="46.57196" lon="6.17076">
        <ele>1149</ele>
        <time>2024-07-01T10:27:23+00:00</time>
      </trkpt>
      <trkpt lat="46.57145" lon="6.17027">
        <ele>1149</ele>
        <time>2024-07-01T10:27:26+00:00</time>
      </trkpt>
      <trkpt lat="46.57112" lon="6.17009">
        <ele>1149</ele>
        <time>2024-07-01T10:27:29+00:00</time>
      </trkpt>
      <trkpt lat="46.57033" lon="6.16979">
        <ele>1151</ele>
        <time>2024-07-01T10:27:32+00:00</time>
      </trkpt>
      <trkpt lat="46.5701" lon="6.16967">
        <ele>1152</ele>
        <time>2024-07-01T10:27:35+00:00</time>
      </trkpt>
      <trkpt lat="46.57002" lon="6.16958">
        <ele>1152</ele>
        <time>2024-07-01T10:27:38+00:00</time>
      </trkpt>
      <trkpt lat="46.56978" lon="6.16913">
        <ele>1153</ele>
        <time>2024-07-01T10:27:41+00:00</time>
      </trkpt>
      <trkpt lat="46.56942" lon="6.16829">
        <ele>1155</ele>
        <time>2024-07-01T10:27:44+00:00</time>
      </trkpt>
      <trkpt lat="46.56875" lon="6.16708">
        <ele>1160</ele>
        <time>2024-07-01T10:27:47+00:00</time>
      </trkpt>
      <trkpt lat="46.56825" lon="6.16583">
        <ele>1166</ele>
        <time>2024-07-01T10:27:50+00:00</time>
      </trkpt>
      <trkpt lat="46.56791" lon="6.16436">
        <ele>1169</ele>
        <time>2024-07-01T10:27:53+00:00</time>
      </trkpt>
      <trkpt lat="46.56762" lon="6.1638">
        <ele>1170</ele>
        <time>2024-07-01T10:27:56+00:00</time>
      </trkpt>
      <trkpt lat="46.56753" lon="6.16343">
        <ele>1170</ele>
        <time>2024-07-01T10:27:59+00:00</time>
      </trkpt>
      <trkpt lat="46.5674" lon="6.1625">
        <ele>1173</ele>
        <time>2024-07-01T10:28:02+00:00</time>
      </trkpt>
      <trkpt lat="46.5672" lon="6.16195">
        <ele>1176</ele>
        <time>2024-07-01T10:28:05+00:00</time>
      </trkpt>
      <trkpt lat="46.56719" lon="6.16184">
        <ele>1177</ele>
        <time>2024-07-01T10:28:08+00:00</time>
      </trkpt>
      <trkpt lat="46.56725" lon="6.16146">
        <ele>1178</ele>
        <time>2024-07-01T10:28:11+00:00</time>
      </trkpt>
      <trkpt lat="46.56758" lon="6.16065">
        <ele>1180</ele>
        <time>2024-07-01T10:28:14+00:00</time>
      </trkpt>
      <trkpt lat="46.56764" lon="6.16035">
        <ele>1180</ele>
        <time>2024-07-01T10:28:17+00:00</time>
      </trkpt>
      <trkpt lat="46.56765" lon="6.15875">
        <ele>1184</ele>
        <time>2024-07-01T10:28:20+00:00</time>
      </trkpt>
      <trkpt lat="46.56747" lon="6.1583">
        <ele>1188</ele>
        <time>2024-07-01T10:28:23+00:00</time>
      </trkpt>
      <trkpt lat="46.56744" lon="6.15816">
        <ele>1189</ele>
        <time>2024-07-01T10:28:26+00:00</time>
      </trkpt>
      <trkpt lat="46.56753" lon="6.1574">
        <ele>1194</ele>
        <time>2024-07-01T10:28:29+00:00</time>
      </trkpt>
      <trkpt lat="46.56762" lon="6.15707">
        <ele>1196</ele>
        <time>2024-07-01T10:28:32+00:00</time>
      </trkpt>
      <trkpt lat="46.56778" lon="6.1569">
        <ele>1197</ele>
        <time>2024-07-01T10:28:35+00:00</time>
      </trkpt>
      <trkpt lat="46.56872" lon="6.15658">
        <ele>1196</ele>
        <time>2024-07-01T10:28:38+00:00</time>
      </trkpt>
      <trkpt lat="46.56905" lon="6.15642">
        <ele>1200</ele>
        <time>2024-07-01T10:28:41+00:00</time>
      </trkpt>
      <trkpt lat="46.56924" lon="6.15629">
        <ele>1203</ele>
        <time>2024-07-01T10:28:44+00:00</time>
      </trkpt>
      <trkpt lat="46.56946" lon="6.15608">
        <ele>1205</ele>
        <time>2024-07-01T10:28:47+00:00</time>
      </trkpt>
      <trkpt lat="46.56957" lon="6.15589">
        <ele>1207</ele>
        <time>2024-07-01T10:28:50+00:00</time>
      </trkpt>
      <trkpt lat="46.56961" lon="6.15576">
        <ele>1208</ele>
        <time>2024-07-01T10:28:53+00:00</time>
      </trkpt>
      <trkpt lat="46.56994" lon="6.15526">
        <ele>1212</ele>
        <time>2024-07-01T10:28:56+00:00</time>
      </trkpt>
      <trkpt lat="46.56993" lon="6.15505">
        <ele>1212</ele>
        <time>2024-07-01T10:28:59+00:00</time>
      </trkpt>
      <trkpt lat="46.56983" lon="6.15482">
        <ele>1213</ele>
        <time>2024-07-01T10:29:02+00:00</time>
      </trkpt>
      <trkpt lat="46.56957" lon="6.15444">
        <ele>1214</ele>
        <time>2024-07-01T10:29:05+00:00</time>
      </trkpt>
      <trkpt lat="46.56908" lon="6.15332">
        <ele>1214</ele>
        <time>2024-07-01T10:29:08+00:00</time>
      </trkpt>
      <trkpt lat="46.56898" lon="6.15298">
        <ele>1215</ele>
        <time>2024-07-01T10:29:11+00:00</time>
      </trkpt>
      <trkpt lat="46.56881" lon="6.15219">
        <ele>1214</ele>
        <time>2024-07-01T10:29:14+00:00</time>
      </trkpt>
      <trkpt lat="46.56853" lon="6.15173">
        <ele>1215</ele>
        <time>2024-07-01T10:29:17+00:00</time>
      </trkpt>
      <trkpt lat="46.56809" lon="6.15129">
        <ele>1217</ele>
        <time>2024-07-01T10:29:20+00:00</time>
      </trkpt>
      <trkpt lat="46.56788" lon="6.15096">
        <ele>1217</ele>
        <time>2024-07-01T10:29:23+00:00</time>
      </trkpt>
      <trkpt lat="46.56778" lon="6.15073">
        <ele>1217</ele>
        <time>2024-07-01T10:29:26+00:00</time>
      </trkpt>
      <trkpt lat="46.56766" lon="6.15017">
        <ele>1217</ele>
        <time>2024-07-01T10:29:29+00:00</time>
      </trkpt>
      <trkpt lat="46.56745" lon="6.14982">
        <ele>1219</ele>
        <time>2024-07-01T10:29:32+00:00</time>
      </trkpt>
      <trkpt lat="46.56733" lon="6.1495">
        <ele>1220</ele>
        <time>2024-07-01T10:29:35+00:00</time>
      </trkpt>
      <trkpt lat="46.56732" lon="6.14919">
        <ele>1220</ele>
        <time>2024-07-01T10:29:38+00:00</time>
      </trkpt>
      <trkpt lat="46.56736" lon="6.14894">
        <ele>1220</ele>
        <time>2024-07-01T10:29:41+00:00</time>
      </trkpt>
      <trkpt lat="46.56778" lon="6.14835">
        <ele>1223</ele>
        <time>2024-07-01T10:29:44+00:00</time>
      </trkpt>
      <trkpt lat="46.56814" lon="6.14798">
        <ele>1225</ele>
        <time>2024-07-01T10:29:47+00:00</time>
      </trkpt>
      <trkpt lat="46.56826" lon="6.14765">
        <ele>1226</ele>
        <time>2024-07-01T10:29:50+00:00</time>
      </trkpt>
      <trkpt lat="46.56832" lon="6.14728">
        <ele>1227</ele>
        <time>2024-07-01T10:29:53+00:00</time>
      </trkpt>
      <trkpt lat="46.56848" lon="6.14675">
        <ele>1231</ele>
        <time>2024-07-01T10:29:56+00:00</time>
      </trkpt>
      <trkpt lat="46.56864" lon="6.1464">
        <ele>1233</ele>
        <time>2024-07-01T10:29:59+00:00</time>
      </trkpt>
      <trkpt lat="46.56869" lon="6.14634">
        <ele>1234</ele>
        <time>2024-07-01T10:30:02+00:00</time>
      </trkpt>
      <trkpt lat="46.5688" lon="6.14631">
        <ele>1234</ele>
        <time>2024-07-01T10:30:05+00:00</time>
      </trkpt>
      <trkpt lat="46.56913" lon="6.1465">
        <ele>1237</ele>
        <time>2024-07-01T10:30:08+00:00</time>
      </trkpt>
      <trkpt lat="46.5693" lon="6.14644">
        <ele>1238</ele>
        <time>2024-07-01T10:30:11+00:00</time>
      </trkpt>
      <trkpt lat="46.56938" lon="6.14631">
        <ele>1238</ele>
        <time>2024-07-01T10:30:14+00:00</time>
      </trkpt>
      <trkpt lat="46.56969" lon="6.14546">
        <ele>1243</ele>
        <time>2024-07-01T10:30:17+00:00</time>
      </trkpt>
      <trkpt lat="46.56994" lon="6.14494">
        <ele>1250</ele>
        <time>2024-07-01T10:30:20+00:00</time>
      </trkpt>
      <trkpt lat="46.57012" lon="6.14474">
        <ele>1251</ele>
        <time>2024-07-01T10:30:23+00:00</time>
      </trkpt>
      <trkpt lat="46.5706" lon="6.14448">
        <ele>1255</ele>
        <time>2024-07-01T10:30:26+00:00</time>
      </trkpt>
      <trkpt lat="46.57085" lon="6.14428">
        <ele>1251</ele>
        <time>2024-07-01T10:30:29+00:00</time>
      </trkpt>
      <trkpt lat="46.57097" lon="6.14438">
        <ele>1249</ele>
        <time>2024-07-01T10:30:32+00:00</time>
      </trkpt>
      <trkpt lat="46.57117" lon="6.14466">
        <ele>1245</ele>
        <time>2024-07-01T10:30:35+00:00</time>
      </trkpt>
      <trkpt lat="46.57161" lon="6.14539">
        <ele>1238</ele>
        <time>2024-07-01T10:30:38+00:00</time>
      </trkpt>
      <trkpt lat="46.57187" lon="6.14587">
        <ele>1231</ele>
        <time>2024-07-01T10:30:41+00:00</time>
      </trkpt>
      <trkpt lat="46.57203" lon="6.14633">
        <ele>1229</ele>
        <time>2024-07-01T10:30:44+00:00</time>
      </trkpt>
      <trkpt lat="46.5722" lon="6.14673">
        <ele>1225</ele>
        <time>2024-07-01T10:30:47+00:00</time>
      </trkpt>
      <trkpt lat="46.57235" lon="6.14697">
        <ele>1223</ele>
        <time>2024-07-01T10:30:50+00:00</time>
      </trkpt>
      <trkpt lat="46.5727" lon="6.14736">
        <ele>1220</ele>
        <time>2024-07-01T10:30:53+00:00</time>
      </trkpt>
      <trkpt lat="46.57421" lon="6.14885">
        <ele>1210</ele>
        <time>2024-07-01T10:30:56+00:00</time>
      </trkpt>
      <trkpt lat="46.57457" lon="6.14891">
        <ele>1208</ele>
        <time>2024-07-01T10:30:59+00:00</time>
      </trkpt>
      <trkpt lat="46.57458" lon="6.14877">
        <ele>1207</ele>
        <time>2024-07-01T10:31:02+00:00</time>
      </trkpt>
      <trkpt lat="46.57472" lon="6.14836">
        <ele>1206</ele>
        <time>2024-07-01T10:31:05+00:00</time>
      </trkpt>
      <trkpt lat="46.57523" lon="6.14748">
        <ele>1205</ele>
        <time>2024-07-01T10:31:08+00:00</time>
      </trkpt>
      <trkpt lat="46.57531" lon="6.14719">
        <ele>1205</ele>
        <time>2024-07-01T10:31:11+00:00</time>
      </trkpt>
      <trkpt lat="46.57531" lon="6.14642">
        <ele>1205</ele>
        <time>2024-07-01T10:31:14+00:00</time>
      </trkpt>
      <trkpt lat="46.57557" lon="6.14618">
        <ele>1206</ele>
        <time>2024-07-01T10:31:17+00:00</time>
      </trkpt>
      <trkpt lat="46.57582" lon="6.14587">
        <ele>1208</ele>
        <time>2024-07-01T10:31:20+00:00</time>
      </trkpt>
      <trkpt lat="46.57606" lon="6.14523">
        <ele>1211</ele>
        <time>2024-07-01T10:31:23+00:00</time>
      </trkpt>
      <trkpt lat="46.57615" lon="6.14507">
        <ele>1212</ele>
        <time>2024-07-01T10:31:26+00:00</time>
      </trkpt>
      <trkpt lat="46.57678" lon="6.14446">
        <ele>1216</ele>
        <time>2024-07-01T10:31:29+00:00</time>
      </trkpt>
      <trkpt lat="46.57721" lon="6.14369">
        <ele>1221</ele>
        <time>2024-07-01T10:31:32+00:00</time>
      </trkpt>
      <trkpt lat="46.5773" lon="6.14364">
        <ele>1222</ele>
        <time>2024-07-01T10:31:35+00:00</time>
      </trkpt>
      <trkpt lat="46.57741" lon="6.14365">
        <ele>1223</ele>
        <time>2024-07-01T10:31:38+00:00</time>
      </trkpt>
      <trkpt lat="46.57764" lon="6.14377">
        <ele>1224</ele>
        <time>2024-07-01T10:31:41+00:00</time>
      </trkpt>
      <trkpt lat="46.57782" lon="6.14379">
        <ele>1225</ele>
        <time>2024-07-01T10:31:44+00:00</time>
      </trkpt>
      <trkpt lat="46.57804" lon="6.14371">
        <ele>1225</ele>
        <time>2024-07-01T10:31:47+00:00</time>
      </trkpt>
      <trkpt lat="46.57828" lon="6.14352">
        <ele>1226</ele>
        <time>2024-07-01T10:31:50+00:00</time>
      </trkpt>
      <trkpt lat="46.57845" lon="6.1433">
        <ele>1226</ele>
        <time>2024-07-01T10:31:53+00:00</time>
      </trkpt>
      <trkpt lat="46.57859" lon="6.14306">
        <ele>1227</ele>
        <time>2024-07-01T10:31:56+00:00</time>
      </trkpt>
      <trkpt lat="46.57868" lon="6.14268">
        <ele>1226</ele>
        <time>2024-07-01T10:31:59+00:00</time>
      </trkpt>
      <trkpt lat="46.57862" lon="6.14201">
        <ele>1227</ele>
        <time>2024-07-01T10:32:02+00:00</time>
      </trkpt>
      <trkpt lat="46.57864" lon="6.1419">
        <ele>1227</ele>
        <time>2024-07-01T10:32:05+00:00</time>
      </trkpt>
      <trkpt lat="46.57876" lon="6.14171">
        <ele>1227</ele>
        <time>2024-07-01T10:32:08+00:00</time>
      </trkpt>
      <trkpt lat="46.57947" lon="6.1415">
        <ele>1231</ele>
        <time>2024-07-01T10:32:11+00:00</time>
      </trkpt>
      <trkpt lat="46.57981" lon="6.14145">
        <ele>1233</ele>
        <time>2024-07-01T10:32:14+00:00</time>
      </trkpt>
      <trkpt lat="46.58017" lon="6.14153">
        <ele>1235</ele>
        <time>2024-07-01T10:32:17+00:00</time>
      </trkpt>
      <trkpt lat="46.58065" lon="6.14174">
        <ele>1238</ele>
        <time>2024-07-01T10:32:20+00:00</time>
      </trkpt>
      <trkpt lat="46.58084" lon="6.14174">
        <ele>1240</ele>
        <time>2024-07-01T10:32:23+00:00</time>
      </trkpt>
      <trkpt lat="46.58104" lon="6.14166">
        <ele>1241</ele>
        <time>2024-07-01T10:32:26+00:00</time>
      </trkpt>
      <trkpt lat="46.58135" lon="6.14136">
        <ele>1245</ele>
        <time>2024-07-01T10:32:29+00:00</time>
      </trkpt>
      <trkpt lat="46.58152" lon="6.14127">
        <ele>1246</ele>
        <time>2024-07-01T10:32:32+00:00</time>
      </trkpt>
      <trkpt lat="46.58161" lon="6.14116">
        <ele>1247</ele>
        <time>2024-07-01T10:32:35+00:00</time>
      </trkpt>
      <trkpt lat="46.58172" lon="6.14094">
        <ele>1248</ele>
        <time>2024-07-01T10:32:38+00:00</time>
      </trkpt>
      <trkpt lat="46.58187" lon="6.13976">
        <ele>1248</ele>
        <time>2024-07-01T10:32:41+00:00</time>
      </trkpt>
      <trkpt lat="46.58187" lon="6.13944">
        <ele>1248</ele>
        <time>2024-07-01T10:32:44+00:00</time>
      </trkpt>
      <trkpt lat="46.58175" lon="6.13916">
        <ele>1249</ele>
        <time>2024-07-01T10:32:47+00:00</time>
      </trkpt>
      <trkpt lat="46.58149" lon="6.13871">
        <ele>1249</ele>
        <time>2024-07-01T10:32:50+00:00</time>
      </trkpt>
      <trkpt lat="46.58145" lon="6.13859">
        <ele>1249</ele>
        <time>2024-07-01T10:32:53+00:00</time>
      </trkpt>
      <trkpt lat="46.58144" lon="6.13832">
        <ele>1249</ele>
        <time>2024-07-01T10:32:56+00:00</time>
      </trkpt>
      <trkpt lat="46.58154" lon="6.13799">
        <ele>1249</ele>
        <time>2024-07-01T10:32:59+00:00</time>
      </trkpt>
      <trkpt lat="46.58186" lon="6.13747">
        <ele>1249</ele>
        <time>2024-07-01T10:33:02+00:00</time>
      </trkpt>
      <trkpt lat="46.58199" lon="6.13713">
        <ele>1250</ele>
        <time>2024-07-01T10:33:05+00:00</time>
      </trkpt>
      <trkpt lat="46.58203" lon="6.13687">
        <ele>1250</ele>
        <time>2024-07-01T10:33:08+00:00</time>
      </trkpt>
      <trkpt lat="46.58201" lon="6.13665">
        <ele>1250</ele>
        <time>2024-07-01T10:33:11+00:00</time>
      </trkpt>
      <trkpt lat="46.58186" lon="6.13625">
        <ele>1252</ele>
        <time>2024-07-01T10:33:14+00:00</time>
      </trkpt>
      <trkpt lat="46.58179" lon="6.13594">
        <ele>1253</ele>
        <time>2024-07-01T10:33:17+00:00</time>
      </trkpt>
      <trkpt lat="46.58177" lon="6.13568">
        <ele>1254</ele>
        <time>2024-07-01T10:33:20+00:00</time>
      </trkpt>
      <trkpt lat="46.58181" lon="6.13498">
        <ele>1258</ele>
        <time>2024-07-01T10:33:23+00:00</time>
      </trkpt>
      <trkpt lat="46.58191" lon="6.13473">
        <ele>1259</ele>
        <time>2024-07-01T10:33:26+00:00</time>
      </trkpt>
      <trkpt lat="46.58198" lon="6.13439">
        <ele>1261</ele>
        <time>2024-07-01T10:33:29+00:00</time>
      </trkpt>
      <trkpt lat="46.58197" lon="6.13362">
        <ele>1265</ele>
        <time>2024-07-01T10:33:32+00:00</time>
      </trkpt>
      <trkpt lat="46.58192" lon="6.13338">
        <ele>1266</ele>
        <time>2024-07-01T10:33:35+00:00</time>
      </trkpt>
      <trkpt lat="46.58187" lon="6.13329">
        <ele>1266</ele>
        <time>2024-07-01T10:33:38+00:00</time>
      </trkpt>
      <trkpt lat="46.58165" lon="6.13304">
        <ele>1266</ele>
        <time>2024-07-01T10:33:41+00:00</time>
      </trkpt>
      <trkpt lat="46.58151" lon="6.13276">
        <ele>1266</ele>
        <time>2024-07-01T10:33:44+00:00</time>
      </trkpt>
      <trkpt lat="46.58142" lon="6.13244">
        <ele>1267</ele>
        <time>2024-07-01T10:33:47+00:00</time>
      </trkpt>
      <trkpt lat="46.58129" lon="6.13215">
        <ele>1268</ele>
        <time>2024-07-01T10:33:50+00:00</time>
      </trkpt>
      <trkpt lat="46.58078" lon="6.13141">
        <ele>1269</ele>
        <time>2024-07-01T10:33:53+00:00</time>
      </trkpt>
      <trkpt lat="46.58063" lon="6.13074">
        <ele>1272</ele>
        <time>2024-07-01T10:33:56+00:00</time>
      </trkpt>
      <trkpt lat="46.5806" lon="6.1305">
        <ele>1273</ele>
        <time>2024-07-01T10:33:59+00:00</time>
      </trkpt>
      <trkpt lat="46.58052" lon="6.13032">
        <ele>1274</ele>
        <time>2024-07-01T10:34:02+00:00</time>
      </trkpt>
      <trkpt lat="46.58017" lon="6.13016">
        <ele>1275</ele>
        <time>2024-07-01T10:34:05+00:00</time>
      </trkpt>
      <trkpt lat="46.58001" lon="6.12998">
        <ele>1276</ele>
        <time>2024-07-01T10:34:08+00:00</time>
      </trkpt>
      <trkpt lat="46.58009" lon="6.12944">
        <ele>1276</ele>
        <time>2024-07-01T10:34:11+00:00</time>
      </trkpt>
      <trkpt lat="46.5801" lon="6.12897">
        <ele>1278</ele>
        <time>2024-07-01T10:34:14+00:00</time>
      </trkpt>
      <trkpt lat="46.58012" lon="6.12887">
        <ele>1279</ele>
        <time>2024-07-01T10:34:17+00:00</time>
      </trkpt>
      <trkpt lat="46.58019" lon="6.12872">
        <ele>1281</ele>
        <time>2024-07-01T10:34:20+00:00</time>
      </trkpt>
      <trkpt lat="46.58059" lon="6.12825">
        <ele>1288</ele>
        <time>2024-07-01T10:34:23+00:00</time>
      </trkpt>
      <trkpt lat="46.58071" lon="6.12824">
        <ele>1289</ele>
        <time>2024-07-01T10:34:26+00:00</time>
      </trkpt>
      <trkpt lat="46.58082" lon="6.12839">
        <ele>1289</ele>
        <time>2024-07-01T10:34:29+00:00</time>
      </trkpt>
      <trkpt lat="46.58091" lon="6.12862">
        <ele>1289</ele>
        <time>2024-07-01T10:34:32+00:00</time>
      </trkpt>
      <trkpt lat="46.58107" lon="6.12888">
        <ele>1290</ele>
        <time>2024-07-01T10:34:35+00:00</time>
      </trkpt>
      <trkpt lat="46.58169" lon="6.12944">
        <ele>1290</ele>
        <time>2024-07-01T10:34:38+00:00</time>
      </trkpt>
      <trkpt lat="46.58202" lon="6.12956">
        <ele>1294</ele>
        <time>2024-07-01T10:34:41+00:00</time>
      </trkpt>
      <trkpt lat="46.58246" lon="6.12962">
        <ele>1298</ele>
        <time>2024-07-01T10:34:44+00:00</time>
      </trkpt>
      <trkpt lat="46.58283" lon="6.12914">
        <ele>1300</ele>
        <time>2024-07-01T10:34:47+00:00</time>
      </trkpt>
      <trkpt lat="46.58327" lon="6.12845">
        <ele>1303</ele>
        <time>2024-07-01T10:34:50+00:00</time>
      </trkpt>
      <trkpt lat="46.58343" lon="6.12815">
        <ele>1306</ele>
        <time>2024-07-01T10:34:53+00:00</time>
      </trkpt>
      <trkpt lat="46.58354" lon="6.1277">
        <ele>1310</ele>
        <time>2024-07-01T10:34:56+00:00</time>
      </trkpt>
      <trkpt lat="46.58361" lon="6.12755">
        <ele>1311</ele>
        <time>2024-07-01T10:34:59+00:00</time>
      </trkpt>
      <trkpt lat="46.58403" lon="6.12713">
        <ele>1314</ele>
        <time>2024-07-01T10:35:02+00:00</time>
      </trkpt>
      <trkpt lat="46.58408" lon="6.12703">
        <ele>1314</ele>
        <time>2024-07-01T10:35:05+00:00</time>
      </trkpt>
      <trkpt lat="46.58416" lon="6.12698">
        <ele>1315</ele>
        <time>2024-07-01T10:35:08+00:00</time>
      </trkpt>
      <trkpt lat="46.58449" lon="6.12697">
        <ele>1318</ele>
        <time>2024-07-01T10:35:11+00:00</time>
      </trkpt>
      <trkpt lat="46.58487" lon="6.12687">
        <ele>1320</ele>
        <time>2024-07-01T10:35:14+00:00</time>
      </trkpt>
      <trkpt lat="46.58497" lon="6.12688">
        <ele>1320</ele>
        <time>2024-07-01T10:35:17+00:00</time>
      </trkpt>
      <trkpt lat="46.58504" lon="6.12676">
        <ele>1321</ele>
        <time>2024-07-01T10:35:20+00:00</time>
      </trkpt>
      <trkpt lat="46.58549" lon="6.12649">
        <ele>1323</ele>
        <time>2024-07-01T10:35:23+00:00</time>
      </trkpt>
      <trkpt lat="46.58597" lon="6.1264">
        <ele>1328</ele>
        <time>2024-07-01T10:35:26+00:00</time>
      </trkpt>
      <trkpt lat="46.5863" lon="6.12627">
        <ele>1331</ele>
        <time>2024-07-01T10:35:29+00:00</time>
      </trkpt>
      <trkpt lat="46.58652" lon="6.12602">
        <ele>1332</ele>
        <time>2024-07-01T10:35:32+00:00</time>
      </trkpt>
      <trkpt lat="46.58662" lon="6.12585">
        <ele>1334</ele>
        <time>2024-07-01T10:35:35+00:00</time>
      </trkpt>
      <trkpt lat="46.5867" lon="6.12533">
        <ele>1334</ele>
        <time>2024-07-01T10:35:38+00:00</time>
      </trkpt>
      <trkpt lat="46.58692" lon="6.12509">
        <ele>1334</ele>
        <time>2024-07-01T10:35:41+00:00</time>
      </trkpt>
      <trkpt lat="46.58695" lon="6.12488">
        <ele>1334</ele>
        <time>2024-07-01T10:35:44+00:00</time>
      </trkpt>
      <trkpt lat="46.58704" lon="6.12474">
        <ele>1334</ele>
        <time>2024-07-01T10:35:47+00:00</time>
      </trkpt>
      <trkpt lat="46.5876" lon="6.1245">
        <ele>1333</ele>
        <time>2024-07-01T10:35:50+00:00</time>
      </trkpt>
      <trkpt lat="46.58769" lon="6.12452">
        <ele>1333</ele>
        <time>2024-07-01T10:35:53+00:00</time>
      </trkpt>
      <trkpt lat="46.58784" lon="6.12465">
        <ele>1333</ele>
        <time>2024-07-01T10:35:56+00:00</time>
      </trkpt>
      <trkpt lat="46.58815" lon="6.12465">
        <ele>1330</ele>
        <time>2024-07-01T10:35:59+00:00</time>
      </trkpt>
      <trkpt lat="46.58847" lon="6.12441">
        <ele>1330</ele>
        <time>2024-07-01T10:36:02+00:00</time>
      </trkpt>
      <trkpt lat="46.58864" lon="6.12434">
        <ele>1330</ele>
        <time>2024-07-01T10:36:05+00:00</time>
      </trkpt>
      <trkpt lat="46.58876" lon="6.12436">
        <ele>1330</ele>
        <time>2024-07-01T10:36:08+00:00</time>
      </trkpt>
      <trkpt lat="46.58921" lon="6.12489">
        <ele>1330</ele>
        <time>2024-07-01T10:36:11+00:00</time>
      </trkpt>
      <trkpt lat="46.5894" lon="6.12499">
        <ele>1328</ele>
        <time>2024-07-01T10:36:14+00:00</time>
      </trkpt>
      <trkpt lat="46.58975" lon="6.12491">
        <ele>1326</ele>
        <time>2024-07-01T10:36:17+00:00</time>
      </trkpt>
      <trkpt lat="46.5898" lon="6.12487">
        <ele>1325</ele>
        <time>2024-07-01T10:36:20+00:00</time>
      </trkpt>
      <trkpt lat="46.58984" lon="6.12477">
        <ele>1325</ele>
        <time>2024-07-01T10:36:23+00:00</time>
      </trkpt>
      <trkpt lat="46.58986" lon="6.12478">
        <ele>1325</ele>
        <time>2024-07-01T10:36:26+00:00</time>
      </trkpt>
      <trkpt lat="46.58981" lon="6.12502">
        <ele>1325</ele>
        <time>2024-07-01T10:36:29+00:00</time>
      </trkpt>
      <trkpt lat="46.5898" lon="6.1252">
        <ele>1326</ele>
        <time>2024-07-01T10:36:32+00:00</time>
      </trkpt>
      <trkpt lat="46.58969" lon="6.12558">
        <ele>1327</ele>
        <time>2024-07-01T10:36:35+00:00</time>
      </trkpt>
      <trkpt lat="46.58966" lon="6.12602">
        <ele>1328</ele>
        <time>2024-07-01T10:36:38+00:00</time>
      </trkpt>
      <trkpt lat="46.58959" lon="6.12619">
        <ele>1329</ele>
        <time>2024-07-01T10:36:41+00:00</time>
      </trkpt>
      <trkpt lat="46.58963" lon="6.12656">
        <ele>1330</ele>
        <time>2024-07-01T10:36:44+00:00</time>
      </trkpt>
      <trkpt lat="46.58978" lon="6.1267">
        <ele>1329</ele>
        <time>2024-07-01T10:36:47+00:00</time>
      </trkpt>
      <trkpt lat="46.58979" lon="6.1268">
        <ele>1330</ele>
        <time>2024-07-01T10:36:50+00:00</time>
      </trkpt>
      <trkpt lat="46.58987" lon="6.12689">
        <ele>1330</ele>
        <time>2024-07-01T10:36:53+00:00</time>
      </trkpt>
      <trkpt lat="46.59003" lon="6.12695">
        <ele>1330</ele>
        <time>2024-07-01T10:36:56+00:00</time>
      </trkpt>
      <trkpt lat="46.59004" lon="6.12703">
        <ele>1329</ele>
        <time>2024-07-01T10:36:59+00:00</time>
      </trkpt>
      <trkpt lat="46.58994" lon="6.12743">
        <ele>1324</ele>
        <time>2024-07-01T10:37:02+00:00</time>
      </trkpt>
      <trkpt lat="46.58975" lon="6.12772">
        <ele>1321</ele>
        <time>2024-07-01T10:37:05+00:00</time>
      </trkpt>
      <trkpt lat="46.58968" lon="6.12792">
        <ele>1321</ele>
        <time>2024-07-01T10:37:08+00:00</time>
      </trkpt>
      <trkpt lat="46.58974" lon="6.12811">
        <ele>1323</ele>
        <time>2024-07-01T10:37:11+00:00</time>
      </trkpt>
      <trkpt lat="46.58989" lon="6.12841">
        <ele>1327</ele>
        <time>2024-07-01T10:37:14+00:00</time>
      </trkpt>
      <trkpt lat="46.58982" lon="6.12873">
        <ele>1330</ele>
        <time>2024-07-01T10:37:17+00:00</time>
      </trkpt>
      <trkpt lat="46.58972" lon="6.12896">
        <ele>1333</ele>
        <time>2024-07-01T10:37:20+00:00</time>
      </trkpt>
      <trkpt lat="46.58945" lon="6.12915">
        <ele>1333</ele>
        <time>2024-07-01T10:37:23+00:00</time>
      </trkpt>
      <trkpt lat="46.58918" lon="6.12948">
        <ele>1332</ele>
        <time>2024-07-01T10:37:26+00:00</time>
      </trkpt>
      <trkpt lat="46.58853" lon="6.13003">
        <ele>1329</ele>
        <time>2024-07-01T10:37:29+00:00</time>
      </trkpt>
      <trkpt lat="46.58839" lon="6.13006">
        <ele>1328</ele>
        <time>2024-07-01T10:37:32+00:00</time>
      </trkpt>
      <trkpt lat="46.58799" lon="6.12981">
        <ele>1327</ele>
        <time>2024-07-01T10:37:35+00:00</time>
      </trkpt>
      <trkpt lat="46.58785" lon="6.12979">
        <ele>1326</ele>
        <time>2024-07-01T10:37:38+00:00</time>
      </trkpt>
      <trkpt lat="46.58771" lon="6.12982">
        <ele>1325</ele>
        <time>2024-07-01T10:37:41+00:00</time>
      </trkpt>
      <trkpt lat="46.58744" lon="6.12999">
        <ele>1323</ele>
        <time>2024-07-01T10:37:44+00:00</time>
      </trkpt>
      <trkpt lat="46.58706" lon="6.13064">
        <ele>1320</ele>
        <time>2024-07-01T10:37:47+00:00</time>
      </trkpt>
      <trkpt lat="46.5866" lon="6.1311">
        <ele>1314</ele>
        <time>2024-07-01T10:37:50+00:00</time>
      </trkpt>
      <trkpt lat="46.58643" lon="6.13139">
        <ele>1312</ele>
        <time>2024-07-01T10:37:53+00:00</time>
      </trkpt>
      <trkpt lat="46.5863" lon="6.13147">
        <ele>1311</ele>
        <time>2024-07-01T10:37:56+00:00</time>
      </trkpt>
      <trkpt lat="46.586" lon="6.13146">
        <ele>1308</ele>
        <time>2024-07-01T10:37:59+00:00</time>
      </trkpt>
      <trkpt lat="46.58608" lon="6.13168">
        <ele>1308</ele>
        <time>2024-07-01T10:38:02+00:00</time>
      </trkpt>
      <trkpt lat="46.58606" lon="6.13231">
        <ele>1310</ele>
        <time>2024-07-01T10:38:05+00:00</time>
      </trkpt>
      <trkpt lat="46.58613" lon="6.13253">
        <ele>1311</ele>
        <time>2024-07-01T10:38:08+00:00</time>
      </trkpt>
      <trkpt lat="46.58646" lon="6.13315">
        <ele>1315</ele>
        <time>2024-07-01T10:38:11+00:00</time>
      </trkpt>
      <trkpt lat="46.58678" lon="6.13365">
        <ele>1318</ele>
        <time>2024-07-01T10:38:14+00:00</time>
      </trkpt>
      <trkpt lat="46.58687" lon="6.13374">
        <ele>1318</ele>
        <time>2024-07-01T10:38:17+00:00</time>
      </trkpt>
      <trkpt lat="46.58711" lon="6.13379">
        <ele>1320</ele>
        <time>2024-07-01T10:38:20+00:00</time>
      </trkpt>
      <trkpt lat="46.5873" lon="6.13377">
        <ele>1321</ele>
        <time>2024-07-01T10:38:23+00:00</time>
      </trkpt>
      <trkpt lat="46.58747" lon="6.13367">
        <ele>1322</ele>
        <time>2024-07-01T10:38:26+00:00</time>
      </trkpt>
      <trkpt lat="46.58795" lon="6.13357">
        <ele>1325</ele>
        <time>2024-07-01T10:38:29+00:00</time>
      </trkpt>
      <trkpt lat="46.58844" lon="6.1334">
        <ele>1323</ele>
        <time>2024-07-01T10:38:32+00:00</time>
      </trkpt>
      <trkpt lat="46.58859" lon="6.13317">
        <ele>1324</ele>
        <time>2024-07-01T10:38:35+00:00</time>
      </trkpt>
      <trkpt lat="46.5886" lon="6.13252">
        <ele>1326</ele>
        <time>2024-07-01T10:38:38+00:00</time>
      </trkpt>
      <trkpt lat="46.58871" lon="6.13219">
        <ele>1325</ele>
        <time>2024-07-01T10:38:41+00:00</time>
      </trkpt>
      <trkpt lat="46.58892" lon="6.13189">
        <ele>1325</ele>
        <time>2024-07-01T10:38:44+00:00</time>
      </trkpt>
      <trkpt lat="46.5891" lon="6.13178">
        <ele>1327</ele>
        <time>2024-07-01T10:38:47+00:00</time>
      </trkpt>
      <trkpt lat="46.58929" lon="6.13175">
        <ele>1328</ele>
        <time>2024-07-01T10:38:50+00:00</time>
      </trkpt>
      <trkpt lat="46.58945" lon="6.13186">
        <ele>1328</ele>
        <time>2024-07-01T10:38:53+00:00</time>
      </trkpt>
      <trkpt lat="46.58987" lon="6.1324">
        <ele>1329</ele>
        <time>2024-07-01T10:38:56+00:00</time>
      </trkpt>
      <trkpt lat="46.59021" lon="6.13314">
        <ele>1331</ele>
        <time>2024-07-01T10:38:59+00:00</time>
      </trkpt>
      <trkpt lat="46.59048" lon="6.13331">
        <ele>1331</ele>
        <time>2024-07-01T10:39:02+00:00</time>
      </trkpt>
      <trkpt lat="46.59078" lon="6.13337">
        <ele>1332</ele>
        <time>2024-07-01T10:39:05+00:00</time>
      </trkpt>
      <trkpt lat="46.59093" lon="6.13335">
        <ele>1332</ele>
        <time>2024-07-01T10:39:08+00:00</time>
      </trkpt>
      <trkpt lat="46.59128" lon="6.13319">
        <ele>1334</ele>
        <time>2024-07-01T10:39:11+00:00</time>
      </trkpt>
      <trkpt lat="46.59143" lon="6.13304">
        <ele>1336</ele>
        <time>2024-07-01T10:39:14+00:00</time>
      </trkpt>
      <trkpt lat="46.59166" lon="6.13292">
        <ele>1339</ele>
        <time>2024-07-01T10:39:17+00:00</time>
      </trkpt>
      <trkpt lat="46.59181" lon="6.13295">
        <ele>1340</ele>
        <time>2024-07-01T10:39:20+00:00</time>
      </trkpt>
      <trkpt lat="46.5919" lon="6.13303">
        <ele>1341</ele>
        <time>2024-07-01T10:39:23+00:00</time>
      </trkpt>
      <trkpt lat="46.59206" lon="6.1333">
        <ele>1341</ele>
        <time>2024-07-01T10:39:26+00:00</time>
      </trkpt>
      <trkpt lat="46.59221" lon="6.13345">
        <ele>1340</ele>
        <time>2024-07-01T10:39:29+00:00</time>
      </trkpt>
      <trkpt lat="46.59245" lon="6.13359">
        <ele>1339</ele>
        <time>2024-07-01T10:39:32+00:00</time>
      </trkpt>
      <trkpt lat="46.59259" lon="6.13374">
        <ele>1339</ele>
        <time>2024-07-01T10:39:35+00:00</time>
      </trkpt>
      <trkpt lat="46.59277" lon="6.13405">
        <ele>1338</ele>
        <time>2024-07-01T10:39:38+00:00</time>
      </trkpt>
      <trkpt lat="46.59288" lon="6.13432">
        <ele>1338</ele>
        <time>2024-07-01T10:39:41+00:00</time>
      </trkpt>
      <trkpt lat="46.59321" lon="6.13527">
        <ele>1337</ele>
        <time>2024-07-01T10:39:44+00:00</time>
      </trkpt>
      <trkpt lat="46.59322" lon="6.13549">
        <ele>1337</ele>
        <time>2024-07-01T10:39:47+00:00</time>
      </trkpt>
      <trkpt lat="46.59313" lon="6.13573">
        <ele>1338</ele>
        <time>2024-07-01T10:39:50+00:00</time>
      </trkpt>
      <trkpt lat="46.59299" lon="6.13601">
        <ele>1338</ele>
        <time>2024-07-01T10:39:53+00:00</time>
      </trkpt>
      <trkpt lat="46.59269" lon="6.13647">
        <ele>1337</ele>
        <time>2024-07-01T10:39:56+00:00</time>
      </trkpt>
      <trkpt lat="46.59273" lon="6.13668">
        <ele>1338</ele>
        <time>2024-07-01T10:39:59+00:00</time>
      </trkpt>
      <trkpt lat="46.59296" lon="6.13696">
        <ele>1338</ele>
        <time>2024-07-01T10:40:02+00:00</time>
      </trkpt>
      <trkpt lat="46.5931" lon="6.13723">
        <ele>1338</ele>
        <time>2024-07-01T10:40:05+00:00</time>
      </trkpt>
      <trkpt lat="46.5932" lon="6.13733">
        <ele>1338</ele>
        <time>2024-07-01T10:40:08+00:00</time>
      </trkpt>
      <trkpt lat="46.59358" lon="6.1375">
        <ele>1340</ele>
        <time>2024-07-01T10:40:11+00:00</time>
      </trkpt>
      <trkpt lat="46.59385" lon="6.13788">
        <ele>1342</ele>
        <time>2024-07-01T10:40:14+00:00</time>
      </trkpt>
      <trkpt lat="46.59412" lon="6.13811">
        <ele>1344</ele>
        <time>2024-07-01T10:40:17+00:00</time>
      </trkpt>
      <trkpt lat="46.59422" lon="6.13817">
        <ele>1344</ele>
        <time>2024-07-01T10:40:20+00:00</time>
      </trkpt>
      <trkpt lat="46.59463" lon="6.13813">
        <ele>1344</ele>
        <time>2024-07-01T10:40:23+00:00</time>
      </trkpt>
      <trkpt lat="46.59479" lon="6.13822">
        <ele>1345</ele>
        <time>2024-07-01T10:40:26+00:00</time>
      </trkpt>
      <trkpt lat="46.59514" lon="6.13875">
        <ele>1346</ele>
        <time>2024-07-01T10:40:29+00:00</time>
      </trkpt>
      <trkpt lat="46.59539" lon="6.13896">
        <ele>1346</ele>
        <time>2024-07-01T10:40:32+00:00</time>
      </trkpt>
      <trkpt lat="46.59559" lon="6.13924">
        <ele>1346</ele>
        <time>2024-07-01T10:40:35+00:00</time>
      </trkpt>
      <trkpt lat="46.59625" lon="6.14052">
        <ele>1348</ele>
        <time>2024-07-01T10:40:38+00:00</time>
      </trkpt>
      <trkpt lat="46.59657" lon="6.14093">
        <ele>1350</ele>
        <time>2024-07-01T10:40:41+00:00</time>
      </trkpt>
      <trkpt lat="46.5968" lon="6.14133">
        <ele>1352</ele>
        <time>2024-07-01T10:40:44+00:00</time>
      </trkpt>
      <trkpt lat="46.59706" lon="6.14204">
        <ele>1356</ele>
        <time>2024-07-01T10:40:47+00:00</time>
      </trkpt>
      <trkpt lat="46.5975" lon="6.14294">
        <ele>1357</ele>
        <time>2024-07-01T10:40:50+00:00</time>
      </trkpt>
      <trkpt lat="46.59766" lon="6.14319">
        <ele>1354</ele>
        <time>2024-07-01T10:40:53+00:00</time>
      </trkpt>
      <trkpt lat="46.59769" lon="6.14333">
        <ele>1354</ele>
        <time>2024-07-01T10:40:56+00:00</time>
      </trkpt>
      <trkpt lat="46.5975" lon="6.14409">
        <ele>1352</ele>
        <time>2024-07-01T10:40:59+00:00</time>
      </trkpt>
      <trkpt lat="46.5975" lon="6.14431">
        <ele>1350</ele>
        <time>2024-07-01T10:41:02+00:00</time>
      </trkpt>
      <trkpt lat="46.59773" lon="6.14492">
        <ele>1351</ele>
        <time>2024-07-01T10:41:05+00:00</time>
      </trkpt>
      <trkpt lat="46.59802" lon="6.14515">
        <ele>1355</ele>
        <time>2024-07-01T10:41:08+00:00</time>
      </trkpt>
      <trkpt lat="46.59894" lon="6.14551">
        <ele>1355</ele>
        <time>2024-07-01T10:41:11+00:00</time>
      </trkpt>
      <trkpt lat="46.599" lon="6.14552">
        <ele>1355</ele>
        <time>2024-07-01T10:41:14+00:00</time>
      </trkpt>
      <trkpt lat="46.59924" lon="6.14541">
        <ele>1354</ele>
        <time>2024-07-01T10:41:17+00:00</time>
      </trkpt>
      <trkpt lat="46.59954" lon="6.14538">
        <ele>1353</ele>
        <time>2024-07-01T10:41:20+00:00</time>
      </trkpt>
      <trkpt lat="46.59968" lon="6.14541">
        <ele>1354</ele>
        <time>2024-07-01T10:41:23+00:00</time>
      </trkpt>
      <trkpt lat="46.59982" lon="6.14551">
        <ele>1356</ele>
        <time>2024-07-01T10:41:26+00:00</time>
      </trkpt>
      <trkpt lat="46.59993" lon="6.14568">
        <ele>1358</ele>
        <time>2024-07-01T10:41:29+00:00</time>
      </trkpt>
      <trkpt lat="46.60023" lon="6.14652">
        <ele>1361</ele>
        <time>2024-07-01T10:41:32+00:00</time>
      </trkpt>
      <trkpt lat="46.60051" lon="6.14676">
        <ele>1361</ele>
        <time>2024-07-01T10:41:35+00:00</time>
      </trkpt>
      <trkpt lat="46.60055" lon="6.14692">
        <ele>1361</ele>
        <time>2024-07-01T10:41:38+00:00</time>
      </trkpt>
      <trkpt lat="46.60051" lon="6.14708">
        <ele>1361</ele>
        <time>2024-07-01T10:41:41+00:00</time>
      </trkpt>
      <trkpt lat="46.60028" lon="6.14745">
        <ele>1360</ele>
        <time>2024-07-01T10:41:44+00:00</time>
      </trkpt>
      <trkpt lat="46.60029" lon="6.14754">
        <ele>1360</ele>
        <time>2024-07-01T10:41:47+00:00</time>
      </trkpt>
      <trkpt lat="46.60036" lon="6.14763">
        <ele>1360</ele>
        <time>2024-07-01T10:41:50+00:00</time>
      </trkpt>
      <trkpt lat="46.60052" lon="6.14773">
        <ele>1361</ele>
        <time>2024-07-01T10:41:53+00:00</time>
      </trkpt>
      <trkpt lat="46.6013" lon="6.14797">
        <ele>1358</ele>
        <time>2024-07-01T10:41:56+00:00</time>
      </trkpt>
      <trkpt lat="46.60141" lon="6.14805">
        <ele>1358</ele>
        <time>2024-07-01T10:41:59+00:00</time>
      </trkpt>
      <trkpt lat="46.60188" lon="6.14858">
        <ele>1357</ele>
        <time>2024-07-01T10:42:02+00:00</time>
      </trkpt>
      <trkpt lat="46.6019" lon="6.14866">
        <ele>1357</ele>
        <time>2024-07-01T10:42:05+00:00</time>
      </trkpt>
      <trkpt lat="46.60188" lon="6.1489">
        <ele>1356</ele>
        <time>2024-07-01T10:42:08+00:00</time>
      </trkpt>
      <trkpt lat="46.60182" lon="6.14907">
        <ele>1357</ele>
        <time>2024-07-01T10:42:11+00:00</time>
      </trkpt>
      <trkpt lat="46.60144" lon="6.14979">
        <ele>1356</ele>
        <time>2024-07-01T10:42:14+00:00</time>
      </trkpt>
      <trkpt lat="46.60122" lon="6.15069">
        <ele>1348</ele>
        <time>2024-07-01T10:42:17+00:00</time>
      </trkpt>
      <trkpt lat="46.60114" lon="6.15083">
        <ele>1345</ele>
        <time>2024-07-01T10:42:20+00:00</time>
      </trkpt>
      <trkpt lat="46.60077" lon="6.15125">
        <ele>1339</ele>
        <time>2024-07-01T10:42:23+00:00</time>
      </trkpt>
      <trkpt lat="46.60046" lon="6.15198">
        <ele>1334</ele>
        <time>2024-07-01T10:42:26+00:00</time>
      </trkpt>
      <trkpt lat="46.6002" lon="6.15242">
        <ele>1327</ele>
        <time>2024-07-01T10:42:29+00:00</time>
      </trkpt>
      <trkpt lat="46.6001" lon="6.15283">
        <ele>1325</ele>
        <time>2024-07-01T10:42:32+00:00</time>
      </trkpt>
      <trkpt lat="46.59996" lon="6.15307">
        <ele>1324</ele>
        <time>2024-07-01T10:42:35+00:00</time>
      </trkpt>
      <trkpt lat="46.59953" lon="6.15364">
        <ele>1314</ele>
        <time>2024-07-01T10:42:38+00:00</time>
      </trkpt>
      <trkpt lat="46.59936" lon="6.15394">
        <ele>1314</ele>
        <time>2024-07-01T10:42:41+00:00</time>
      </trkpt>
      <trkpt lat="46.59928" lon="6.15426">
        <ele>1315</ele>
        <time>2024-07-01T10:42:44+00:00</time>
      </trkpt>
      <trkpt lat="46.59925" lon="6.1547">
        <ele>1313</ele>
        <time>2024-07-01T10:42:47+00:00</time>
      </trkpt>
      <trkpt lat="46.59913" lon="6.15519">
        <ele>1312</ele>
        <time>2024-07-01T10:42:50+00:00</time>
      </trkpt>
      <trkpt lat="46.59878" lon="6.15637">
        <ele>1307</ele>
        <time>2024-07-01T10:42:53+00:00</time>
      </trkpt>
      <trkpt lat="46.59841" lon="6.15729">
        <ele>1305</ele>
        <time>2024-07-01T10:42:56+00:00</time>
      </trkpt>
      <trkpt lat="46.59836" lon="6.15771">
        <ele>1303</ele>
        <time>2024-07-01T10:42:59+00:00</time>
      </trkpt>
      <trkpt lat="46.59841" lon="6.15809">
        <ele>1302</ele>
        <time>2024-07-01T10:43:02+00:00</time>
      </trkpt>
      <trkpt lat="46.59863" lon="6.15848">
        <ele>1302</ele>
        <time>2024-07-01T10:43:05+00:00</time>
      </trkpt>
      <trkpt lat="46.59899" lon="6.15888">
        <ele>1300</ele>
        <time>2024-07-01T10:43:08+00:00</time>
      </trkpt>
      <trkpt lat="46.59934" lon="6.15974">
        <ele>1293</ele>
        <time>2024-07-01T10:43:11+00:00</time>
      </trkpt>
      <trkpt lat="46.59949" lon="6.16041">
        <ele>1288</ele>
        <time>2024-07-01T10:43:14+00:00</time>
      </trkpt>
      <trkpt lat="46.59953" lon="6.16073">
        <ele>1285</ele>
        <time>2024-07-01T10:43:17+00:00</time>
      </trkpt>
      <trkpt lat="46.59948" lon="6.16116">
        <ele>1281</ele>
        <time>2024-07-01T10:43:20+00:00</time>
      </trkpt>
      <trkpt lat="46.59954" lon="6.16229">
        <ele>1277</ele>
        <time>2024-07-01T10:43:23+00:00</time>
      </trkpt>
      <trkpt lat="46.59987" lon="6.16304">
        <ele>1275</ele>
        <time>2024-07-01T10:43:26+00:00</time>
      </trkpt>
      <trkpt lat="46.59999" lon="6.16389">
        <ele>1274</ele>
        <time>2024-07-01T10:43:29+00:00</time>
      </trkpt>
      <trkpt lat="46.60005" lon="6.16394">
        <ele>1275</ele>
        <time>2024-07-01T10:43:32+00:00</time>
      </trkpt>
      <trkpt lat="46.60015" lon="6.1639">
        <ele>1276</ele>
        <time>2024-07-01T10:43:35+00:00</time>
      </trkpt>
      <trkpt lat="46.60031" lon="6.16393">
        <ele>1278</ele>
        <time>2024-07-01T10:43:38+00:00</time>
      </trkpt>
      <trkpt lat="46.60063" lon="6.16418">
        <ele>1280</ele>
        <time>2024-07-01T10:43:41+00:00</time>
      </trkpt>
      <trkpt lat="46.60115" lon="6.1651">
        <ele>1282</ele>
        <time>2024-07-01T10:43:44+00:00</time>
      </trkpt>
      <trkpt lat="46.60123" lon="6.16554">
        <ele>1281</ele>
        <time>2024-07-01T10:43:47+00:00</time>
      </trkpt>
      <trkpt lat="46.60129" lon="6.16626">
        <ele>1279</ele>
        <time>2024-07-01T10:43:50+00:00</time>
      </trkpt>
      <trkpt lat="46.60117" lon="6.167">
        <ele>1276</ele>
        <time>2024-07-01T10:43:53+00:00</time>
      </trkpt>
      <trkpt lat="46.60105" lon="6.16748">
        <ele>1276</ele>
        <time>2024-07-01T10:43:56+00:00</time>
      </trkpt>
      <trkpt lat="46.601" lon="6.168">
        <ele>1275</ele>
        <time>2024-07-01T10:43:59+00:00</time>
      </trkpt>
      <trkpt lat="46.60081" lon="6.16836">
        <ele>1274</ele>
        <time>2024-07-01T10:44:02+00:00</time>
      </trkpt>
      <trkpt lat="46.60058" lon="6.16862">
        <ele>1272</ele>
        <time>2024-07-01T10:44:05+00:00</time>
      </trkpt>
      <trkpt lat="46.59977" lon="6.1692">
        <ele>1267</ele>
        <time>2024-07-01T10:44:08+00:00</time>
      </trkpt>
      <trkpt lat="46.59877" lon="6.16936">
        <ele>1261</ele>
        <time>2024-07-01T10:44:11+00:00</time>
      </trkpt>
      <trkpt lat="46.59822" lon="6.16984">
        <ele>1252</ele>
        <time>2024-07-01T10:44:14+00:00</time>
      </trkpt>
      <trkpt lat="46.59808" lon="6.17018">
        <ele>1247</ele>
        <time>2024-07-01T10:44:17+00:00</time>
      </trkpt>
      <trkpt lat="46.59797" lon="6.17067">
        <ele>1244</ele>
        <time>2024-07-01T10:44:20+00:00</time>
      </trkpt>
      <trkpt lat="46.59795" lon="6.17097">
        <ele>1242</ele>
        <time>2024-07-01T10:44:23+00:00</time>
      </trkpt>
      <trkpt lat="46.59787" lon="6.17118">
        <ele>1242</ele>
        <time>2024-07-01T10:44:26+00:00</time>
      </trkpt>
      <trkpt lat="46.5977" lon="6.17145">
        <ele>1240</ele>
        <time>2024-07-01T10:44:29+00:00</time>
      </trkpt>
      <trkpt lat="46.5974" lon="6.17174">
        <ele>1239</ele>
        <time>2024-07-01T10:44:32+00:00</time>
      </trkpt>
      <trkpt lat="46.59722" lon="6.17198">
        <ele>1237</ele>
        <time>2024-07-01T10:44:35+00:00</time>
      </trkpt>
      <trkpt lat="46.59706" lon="6.17241">
        <ele>1235</ele>
        <time>2024-07-01T10:44:38+00:00</time>
      </trkpt>
      <trkpt lat="46.5968" lon="6.17336">
        <ele>1235</ele>
        <time>2024-07-01T10:44:41+00:00</time>
      </trkpt>
      <trkpt lat="46.59662" lon="6.17379">
        <ele>1231</ele>
        <time>2024-07-01T10:44:44+00:00</time>
      </trkpt>
      <trkpt lat="46.59631" lon="6.17418">
        <ele>1228</ele>
        <time>2024-07-01T10:44:47+00:00</time>
      </trkpt>
      <trkpt lat="46.59597" lon="6.17436">
        <ele>1229</ele>
        <time>2024-07-01T10:44:50+00:00</time>
      </trkpt>
      <trkpt lat="46.59559" lon="6.17448">
        <ele>1224</ele>
        <time>2024-07-01T10:44:53+00:00</time>
      </trkpt>
      <trkpt lat="46.59503" lon="6.17489">
        <ele>1218</ele>
        <time>2024-07-01T10:44:56+00:00</time>
      </trkpt>
      <trkpt lat="46.59419" lon="6.17583">
        <ele>1209</ele>
        <time>2024-07-01T10:44:59+00:00</time>
      </trkpt>
      <trkpt lat="46.59389" lon="6.17643">
        <ele>1203</ele>
        <time>2024-07-01T10:45:02+00:00</time>
      </trkpt>
      <trkpt lat="46.59385" lon="6.17657">
        <ele>1202</ele>
        <time>2024-07-01T10:45:05+00:00</time>
      </trkpt>
      <trkpt lat="46.59386" lon="6.17674">
        <ele>1201</ele>
        <time>2024-07-01T10:45:08+00:00</time>
      </trkpt>
      <trkpt lat="46.59406" lon="6.17738">
        <ele>1196</ele>
        <time>2024-07-01T10:45:11+00:00</time>
      </trkpt>
      <trkpt lat="46.59411" lon="6.17783">
        <ele>1190</ele>
        <time>2024-07-01T10:45:14+00:00</time>
      </trkpt>
      <trkpt lat="46.59421" lon="6.17946">
        <ele>1176</ele>
        <time>2024-07-01T10:45:17+00:00</time>
      </trkpt>
      <trkpt lat="46.59421" lon="6.18072">
        <ele>1166</ele>
        <time>2024-07-01T10:45:20+00:00</time>
      </trkpt>
      <trkpt lat="46.59425" lon="6.18092">
        <ele>1165</ele>
        <time>2024-07-01T10:45:23+00:00</time>
      </trkpt>
      <trkpt lat="46.59453" lon="6.18187">
        <ele>1155</ele>
        <time>2024-07-01T10:45:26+00:00</time>
      </trkpt>
      <trkpt lat="46.59455" lon="6.182">
        <ele>1154</ele>
        <time>2024-07-01T10:45:29+00:00</time>
      </trkpt>
      <trkpt lat="46.59452" lon="6.18233">
        <ele>1152</ele>
        <time>2024-07-01T10:45:32+00:00</time>
      </trkpt>
      <trkpt lat="46.59462" lon="6.18217">
        <ele>1153</ele>
        <time>2024-07-01T10:45:35+00:00</time>
      </trkpt>
      <trkpt lat="46.5947" lon="6.18213">
        <ele>1154</ele>
        <time>2024-07-01T10:45:38+00:00</time>
      </trkpt>
      <trkpt lat="46.59474" lon="6.18229">
        <ele>1153</ele>
        <time>2024-07-01T10:45:41+00:00</time>
      </trkpt>
      <trkpt lat="46.59497" lon="6.1826">
        <ele>1150</ele>
        <time>2024-07-01T10:45:44+00:00</time>
      </trkpt>
      <trkpt lat="46.5951" lon="6.18289">
        <ele>1148</ele>
        <time>2024-07-01T10:45:47+00:00</time>
      </trkpt>
      <trkpt lat="46.59516" lon="6.18309">
        <ele>1147</ele>
        <time>2024-07-01T10:45:50+00:00</time>
      </trkpt>
      <trkpt lat="46.59516" lon="6.18334">
        <ele>1146</ele>
        <time>2024-07-01T10:45:53+00:00</time>
      </trkpt>
      <trkpt lat="46.59513" lon="6.18356">
        <ele>1145</ele>
        <time>2024-07-01T10:45:56+00:00</time>
      </trkpt>
      <trkpt lat="46.59494" lon="6.18414">
        <ele>1145</ele>
        <time>2024-07-01T10:45:59+00:00</time>
      </trkpt>
      <trkpt lat="46.59494" lon="6.18439">
        <ele>1143</ele>
        <time>2024-07-01T10:46:02+00:00</time>
      </trkpt>
      <trkpt lat="46.59515" lon="6.18542">
        <ele>1135</ele>
        <time>2024-07-01T10:46:05+00:00</time>
      </trkpt>
      <trkpt lat="46.59511" lon="6.18586">
        <ele>1133</ele>
        <time>2024-07-01T10:46:08+00:00</time>
      </trkpt>
      <trkpt lat="46.59499" lon="6.18647">
        <ele>1129</ele>
        <time>2024-07-01T10:46:11+00:00</time>
      </trkpt>
      <trkpt lat="46.59487" lon="6.18685">
        <ele>1128</ele>
        <time>2024-07-01T10:46:14+00:00</time>
      </trkpt>
      <trkpt lat="46.59467" lon="6.18715">
        <ele>1126</ele>
        <time>2024-07-01T10:46:17+00:00</time>
      </trkpt>
      <trkpt lat="46.59451" lon="6.1875">
        <ele>1122</ele>
        <time>2024-07-01T10:46:20+00:00</time>
      </trkpt>
      <trkpt lat="46.59441" lon="6.18826">
        <ele>1116</ele>
        <time>2024-07-01T10:46:23+00:00</time>
      </trkpt>
      <trkpt lat="46.59441" lon="6.18826">
        <ele>1116</ele>
        <time>2024-07-01T10:46:26+00:00</time>
      </trkpt>
      <trkpt lat="46.59438" lon="6.18844">
        <ele>1116</ele>
        <time>2024-07-01T10:46:29+00:00</time>
      </trkpt>
      <trkpt lat="46.59431" lon="6.1887">
        <ele>1114</ele>
        <time>2024-07-01T10:46:32+00:00</time>
      </trkpt>
      <trkpt lat="46.59417" lon="6.18912">
        <ele>1112</ele>
        <time>2024-07-01T10:46:35+00:00</time>
      </trkpt>
      <trkpt lat="46.5941" lon="6.18927">
        <ele>1111</ele>
        <time>2024-07-01T10:46:38+00:00</time>
      </trkpt>
      <trkpt lat="46.59395" lon="6.18953">
        <ele>1110</ele>
        <time>2024-07-01T10:46:41+00:00</time>
      </trkpt>
      <trkpt lat="46.59371" lon="6.18983">
        <ele>1108</ele>
        <time>2024-07-01T10:46:44+00:00</time>
      </trkpt>
      <trkpt lat="46.5936" lon="6.18987">
        <ele>1107</ele>
        <time>2024-07-01T10:46:47+00:00</time>
      </trkpt>
      <trkpt lat="46.593" lon="6.18984">
        <ele>1102</ele>
        <time>2024-07-01T10:46:50+00:00</time>
      </trkpt>
      <trkpt lat="46.59274" lon="6.18988">
        <ele>1100</ele>
        <time>2024-07-01T10:46:53+00:00</time>
      </trkpt>
      <trkpt lat="46.59249" lon="6.19042">
        <ele>1094</ele>
        <time>2024-07-01T10:46:56+00:00</time>
      </trkpt>
      <trkpt lat="46.59239" lon="6.19077">
        <ele>1090</ele>
        <time>2024-07-01T10:46:59+00:00</time>
      </trkpt>
      <trkpt lat="46.5923" lon="6.19096">
        <ele>1088</ele>
        <time>2024-07-01T10:47:02+00:00</time>
      </trkpt>
      <trkpt lat="46.592" lon="6.19128">
        <ele>1082</ele>
        <time>2024-07-01T10:47:05+00:00</time>
      </trkpt>
      <trkpt lat="46.59153" lon="6.19169">
        <ele>1075</ele>
        <time>2024-07-01T10:47:08+00:00</time>
      </trkpt>
      <trkpt lat="46.59133" lon="6.192">
        <ele>1071</ele>
        <time>2024-07-01T10:47:11+00:00</time>
      </trkpt>
      <trkpt lat="46.59114" lon="6.19246">
        <ele>1068</ele>
        <time>2024-07-01T10:47:14+00:00</time>
      </trkpt>
      <trkpt lat="46.59099" lon="6.193">
        <ele>1067</ele>
        <time>2024-07-01T10:47:17+00:00</time>
      </trkpt>
      <trkpt lat="46.59032" lon="6.19596">
        <ele>1068</ele>
        <time>2024-07-01T10:47:20+00:00</time>
      </trkpt>
      <trkpt lat="46.59033" lon="6.19621">
        <ele>1067</ele>
        <time>2024-07-01T10:47:23+00:00</time>
      </trkpt>
      <trkpt lat="46.5904" lon="6.19669">
        <ele>1067</ele>
        <time>2024-07-01T10:47:26+00:00</time>
      </trkpt>
      <trkpt lat="46.5908" lon="6.19859">
        <ele>1065</ele>
        <time>2024-07-01T10:47:29+00:00</time>
      </trkpt>
      <trkpt lat="46.59092" lon="6.19908">
        <ele>1064</ele>
        <time>2024-07-01T10:47:32+00:00</time>
      </trkpt>
      <trkpt lat="46.59105" lon="6.19944">
        <ele>1064</ele>
        <time>2024-07-01T10:47:35+00:00</time>
      </trkpt>
      <trkpt lat="46.59174" lon="6.20106">
        <ele>1056</ele>
        <time>2024-07-01T10:47:38+00:00</time>
      </trkpt>
      <trkpt lat="46.59179" lon="6.20122">
        <ele>1056</ele>
        <time>2024-07-01T10:47:41+00:00</time>
      </trkpt>
      <trkpt lat="46.59181" lon="6.2014">
        <ele>1055</ele>
        <time>2024-07-01T10:47:44+00:00</time>
      </trkpt>
      <trkpt lat="46.59148" lon="6.20149">
        <ele>1055</ele>
        <time>2024-07-01T10:47:47+00:00</time>
      </trkpt>
      <trkpt lat="46.59119" lon="6.20162">
        <ele>1055</ele>
        <time>2024-07-01T10:47:50+00:00</time>
      </trkpt>
      <trkpt lat="46.59104" lon="6.20172">
        <ele>1055</ele>
        <time>2024-07-01T10:47:53+00:00</time>
      </trkpt>
      <trkpt lat="46.59092" lon="6.20189">
        <ele>1054</ele>
        <time>2024-07-01T10:47:56+00:00</time>
      </trkpt>
      <trkpt lat="46.59078" lon="6.2026">
        <ele>1052</ele>
        <time>2024-07-01T10:47:59+00:00</time>
      </trkpt>
      <trkpt lat="46.59057" lon="6.20328">
        <ele>1049</ele>
        <time>2024-07-01T10:48:02+00:00</time>
      </trkpt>
      <trkpt lat="46.59049" lon="6.2036">
        <ele>1048</ele>
        <time>2024-07-01T10:48:05+00:00</time>
      </trkpt>
      <trkpt lat="46.59039" lon="6.20412">
        <ele>1044</ele>
        <time>2024-07-01T10:48:08+00:00</time>
      </trkpt>
      <trkpt lat="46.59024" lon="6.20477">
        <ele>1040</ele>
        <time>2024-07-01T10:48:11+00:00</time>
      </trkpt>
      <trkpt lat="46.5902" lon="6.20508">
        <ele>1038</ele>
        <time>2024-07-01T10:48:14+00:00</time>
      </trkpt>
      <trkpt lat="46.59019" lon="6.20578">
        <ele>1036</ele>
        <time>2024-07-01T10:48:17+00:00</time>
      </trkpt>
      <trkpt lat="46.59014" lon="6.20608">
        <ele>1034</ele>
        <time>2024-07-01T10:48:20+00:00</time>
      </trkpt>
      <trkpt lat="46.59004" lon="6.20647">
        <ele>1032</ele>
        <time>2024-07-01T10:48:23+00:00</time>
      </trkpt>
      <trkpt lat="46.58996" lon="6.20658">
        <ele>1032</ele>
        <time>2024-07-01T10:48:26+00:00</time>
      </trkpt>
      <trkpt lat="46.58959" lon="6.20741">
        <ele>1029</ele>
        <time>2024-07-01T10:48:29+00:00</time>
      </trkpt>
      <trkpt lat="46.58906" lon="6.20836">
        <ele>1024</ele>
        <time>2024-07-01T10:48:32+00:00</time>
      </trkpt>
      <trkpt lat="46.58856" lon="6.20917">
        <ele>1021</ele>
        <time>2024-07-01T10:48:35+00:00</time>
      </trkpt>
      <trkpt lat="46.58843" lon="6.20932">
        <ele>1021</ele>
        <time>2024-07-01T10:48:38+00:00</time>
      </trkpt>
      <trkpt lat="46.5882" lon="6.20951">
        <ele>1020</ele>
        <time>2024-07-01T10:48:41+00:00</time>
      </trkpt>
      <trkpt lat="46.58756" lon="6.20999">
        <ele>1018</ele>
        <time>2024-07-01T10:48:44+00:00</time>
      </trkpt>
      <trkpt lat="46.58717" lon="6.21023">
        <ele>1018</ele>
        <time>2024-07-01T10:48:47+00:00</time>
      </trkpt>
      <trkpt lat="46.58653" lon="6.21055">
        <ele>1018</ele>
        <time>2024-07-01T10:48:50+00:00</time>
      </trkpt>
      <trkpt lat="46.58517" lon="6.2111">
        <ele>1020</ele>
        <time>2024-07-01T10:48:53+00:00</time>
      </trkpt>
      <trkpt lat="46.58486" lon="6.21113">
        <ele>1021</ele>
        <time>2024-07-01T10:48:56+00:00</time>
      </trkpt>
      <trkpt lat="46.5847" lon="6.21112">
        <ele>1021</ele>
        <time>2024-07-01T10:48:59+00:00</time>
      </trkpt>
      <trkpt lat="46.58401" lon="6.21097">
        <ele>1022</ele>
        <time>2024-07-01T10:49:02+00:00</time>
      </trkpt>
      <trkpt lat="46.58387" lon="6.21098">
        <ele>1023</ele>
        <time>2024-07-01T10:49:05+00:00</time>
      </trkpt>
      <trkpt lat="46.58378" lon="6.21095">
        <ele>1023</ele>
        <time>2024-07-01T10:49:08+00:00</time>
      </trkpt>
      <trkpt lat="46.5839" lon="6.21077">
        <ele>1022</ele>
        <time>2024-07-01T10:49:11+00:00</time>
      </trkpt>
      <trkpt lat="46.5839" lon="6.21077">
        <ele>1022</ele>
        <time>2024-07-01T10:49:14+00:00</time>
      </trkpt>
      <trkpt lat="46.584" lon="6.20995">
        <ele>1022</ele>
        <time>2024-07-01T10:49:17+00:00</time>
      </trkpt>
      <trkpt lat="46.58395" lon="6.20993">
        <ele>1022</ele>
        <time>2024-07-01T10:49:20+00:00</time>
      </trkpt>
    </trkseg>
  </trk>
</gpx>